createdAt,value
2023-05-05T00:00:46.686Z,0.98
2023-05-05T00:01:46.693Z,0.95
2023-05-05T00:02:46.725Z,0.97
2023-05-05T00:03:46.714Z,0.96
2023-05-05T00:04:46.662Z,0.95
2023-05-05T00:05:46.708Z,0.94
2023-05-05T00:06:46.695Z,0.95
2023-05-05T00:07:47.213Z,0.95
2023-05-05T00:08:46.729Z,0.93
2023-05-05T00:09:46.736Z,0.95
2023-05-05T00:10:46.753Z,0.94
2023-05-05T00:11:46.754Z,0.93
2023-05-05T00:12:46.800Z,0.94
2023-05-05T00:13:46.805Z,0.92
2023-05-05T00:14:46.817Z,0.94
2023-05-05T00:15:46.844Z,0.94
2023-05-05T00:16:46.855Z,0.95
2023-05-05T00:17:46.824Z,0.94
2023-05-05T00:18:46.788Z,0.93
2023-05-05T00:19:46.810Z,0.94
2023-05-05T00:20:46.851Z,0.93
2023-05-05T00:21:46.778Z,0.92
2023-05-05T00:22:47.174Z,0.89
2023-05-05T00:23:46.791Z,0.93
2023-05-05T00:24:46.812Z,0.93
2023-05-05T00:25:46.833Z,0.93
2023-05-05T00:26:46.808Z,0.92
2023-05-05T00:27:46.821Z,0.94
2023-05-05T00:28:46.823Z,0.92
2023-05-05T00:29:46.790Z,0.92
2023-05-05T00:30:46.817Z,0.92
2023-05-05T00:31:46.802Z,0.92
2023-05-05T00:32:46.853Z,0.91
2023-05-05T00:33:46.761Z,0.91
2023-05-05T00:34:46.756Z,0.92
2023-05-05T00:35:46.780Z,0.89
2023-05-05T00:36:46.778Z,0.90
2023-05-05T00:37:46.805Z,0.90
2023-05-05T00:38:46.782Z,0.90
2023-05-05T00:39:46.794Z,0.91
2023-05-05T00:40:46.817Z,0.86
2023-05-05T00:41:46.794Z,0.89
2023-05-05T00:42:47.248Z,0.90
2023-05-05T00:43:46.792Z,0.90
2023-05-05T00:44:47.718Z,0.89
2023-05-05T00:45:46.833Z,0.92
2023-05-05T00:46:46.888Z,0.91
2023-05-05T00:47:46.859Z,0.89
2023-05-05T00:48:46.857Z,0.89
2023-05-05T00:49:46.886Z,0.89
2023-05-05T00:50:46.887Z,0.89
2023-05-05T00:51:46.901Z,0.90
2023-05-05T00:52:46.911Z,0.89
2023-05-05T00:53:46.934Z,0.88
2023-05-05T00:54:46.939Z,0.89
2023-05-05T00:55:46.951Z,0.90
2023-05-05T00:56:46.917Z,0.89
2023-05-05T00:57:46.931Z,0.88
2023-05-05T00:58:46.920Z,0.88
2023-05-05T00:59:46.922Z,0.89
2023-05-05T01:00:46.909Z,0.87
2023-05-05T01:01:46.927Z,0.89
2023-05-05T01:02:46.970Z,0.87
2023-05-05T01:03:47.041Z,0.87
2023-05-05T01:04:46.902Z,0.88
2023-05-05T01:05:46.903Z,0.87
2023-05-05T01:06:46.907Z,0.87
2023-05-05T01:07:46.915Z,0.85
2023-05-05T01:08:46.904Z,0.86
2023-05-05T01:09:46.929Z,0.87
2023-05-05T01:10:46.967Z,0.87
2023-05-05T01:11:46.915Z,0.87
2023-05-05T01:12:46.963Z,0.86
2023-05-05T01:13:46.933Z,0.84
2023-05-05T01:14:46.929Z,0.85
2023-05-05T01:15:46.952Z,0.84
2023-05-05T01:16:46.938Z,0.82
2023-05-05T01:17:46.953Z,0.84
2023-05-05T01:18:46.893Z,0.85
2023-05-05T01:19:46.904Z,0.83
2023-05-05T01:20:46.902Z,0.82
2023-05-05T01:21:46.911Z,0.83
2023-05-05T01:22:46.885Z,0.83
2023-05-05T01:23:46.880Z,0.82
2023-05-05T01:24:46.860Z,0.82
2023-05-05T01:25:46.877Z,0.83
2023-05-05T01:26:46.842Z,0.82
2023-05-05T01:27:46.867Z,0.84
2023-05-05T01:28:46.845Z,0.84
2023-05-05T01:29:46.883Z,0.83
2023-05-05T01:30:46.862Z,0.82
2023-05-05T01:31:46.925Z,0.82
2023-05-05T01:32:46.861Z,0.82
2023-05-05T01:33:46.859Z,0.81
2023-05-05T01:34:46.837Z,0.83
2023-05-05T01:35:46.851Z,0.82
2023-05-05T01:36:46.812Z,0.80
2023-05-05T01:37:46.860Z,0.81
2023-05-05T01:38:46.815Z,0.80
2023-05-05T01:39:46.835Z,0.82
2023-05-05T01:40:46.805Z,0.80
2023-05-05T01:41:46.886Z,0.80
2023-05-05T01:42:46.815Z,0.80
2023-05-05T01:43:46.854Z,0.80
2023-05-05T01:44:46.823Z,0.81
2023-05-05T01:45:46.857Z,0.79
2023-05-05T01:46:46.822Z,0.79
2023-05-05T01:47:46.878Z,0.80
2023-05-05T01:48:46.804Z,0.78
2023-05-05T01:49:46.812Z,0.79
2023-05-05T01:50:46.826Z,0.79
2023-05-05T01:51:46.800Z,0.79
2023-05-05T01:52:46.779Z,0.77
2023-05-05T01:53:46.814Z,0.78
2023-05-05T01:54:46.769Z,0.77
2023-05-05T01:55:46.781Z,0.76
2023-05-05T01:56:46.803Z,0.77
2023-05-05T01:57:46.802Z,0.76
2023-05-05T01:58:46.823Z,0.77
2023-05-05T01:59:46.810Z,0.76
2023-05-05T02:00:46.828Z,0.76
2023-05-05T02:01:46.823Z,0.77
2023-05-05T02:02:46.882Z,0.76
2023-05-05T02:03:46.833Z,0.77
2023-05-05T02:04:46.805Z,0.76
2023-05-05T02:05:46.849Z,0.74
2023-05-05T02:06:46.795Z,0.71
2023-05-05T02:07:46.867Z,0.73
2023-05-05T02:08:46.852Z,0.75
2023-05-05T02:09:46.849Z,0.75
2023-05-05T02:10:46.842Z,0.76
2023-05-05T02:11:46.857Z,0.74
2023-05-05T02:12:46.952Z,0.75
2023-05-05T02:13:46.919Z,0.74
2023-05-05T02:14:46.857Z,0.75
2023-05-05T02:15:46.912Z,0.75
2023-05-05T02:16:46.893Z,0.75
2023-05-05T02:17:46.993Z,0.74
2023-05-05T02:18:46.931Z,0.74
2023-05-05T02:19:46.931Z,0.76
2023-05-05T02:20:46.921Z,0.74
2023-05-05T02:21:46.965Z,0.73
2023-05-05T02:22:46.943Z,0.73
2023-05-05T02:23:46.985Z,0.74
2023-05-05T02:24:46.947Z,0.74
2023-05-05T02:25:46.973Z,0.73
2023-05-05T02:26:46.966Z,0.74
2023-05-05T02:27:47.010Z,0.71
2023-05-05T02:28:47.026Z,0.73
2023-05-05T02:29:47.019Z,0.71
2023-05-05T02:30:46.998Z,0.71
2023-05-05T02:31:47.099Z,0.72
2023-05-05T02:32:47.062Z,0.73
2023-05-05T02:33:47.047Z,0.72
2023-05-05T02:34:47.049Z,0.72
2023-05-05T02:35:47.096Z,0.71
2023-05-05T02:36:47.108Z,0.72
2023-05-05T02:37:47.134Z,0.72
2023-05-05T02:38:47.128Z,0.71
2023-05-05T02:39:47.136Z,0.70
2023-05-05T02:40:47.147Z,0.71
2023-05-05T02:41:47.172Z,0.71
2023-05-05T02:42:47.197Z,0.71
2023-05-05T02:43:47.159Z,0.71
2023-05-05T02:44:47.184Z,0.71
2023-05-05T02:45:47.212Z,0.72
2023-05-05T02:46:47.305Z,0.70
2023-05-05T02:47:47.244Z,0.71
2023-05-05T02:48:47.241Z,0.73
2023-05-05T02:49:47.247Z,0.71
2023-05-05T02:50:47.272Z,0.71
2023-05-05T02:51:47.242Z,0.70
2023-05-05T02:52:47.249Z,0.69
2023-05-05T02:53:47.270Z,0.70
2023-05-05T02:54:47.302Z,0.70
2023-05-05T02:55:47.309Z,0.70
2023-05-05T02:56:47.326Z,0.69
2023-05-05T02:57:47.332Z,0.70
2023-05-05T02:58:47.339Z,0.69
2023-05-05T02:59:47.373Z,0.69
2023-05-05T03:00:47.347Z,0.70
2023-05-05T03:01:47.453Z,0.69
2023-05-05T03:02:47.423Z,0.68
2023-05-05T03:03:47.467Z,0.69
2023-05-05T03:04:47.410Z,0.70
2023-05-05T03:05:47.433Z,0.69
2023-05-05T03:06:47.417Z,0.69
2023-05-05T03:07:47.410Z,0.68
2023-05-05T03:08:47.437Z,0.67
2023-05-05T03:09:47.443Z,0.68
2023-05-05T03:10:47.460Z,0.69
2023-05-05T03:11:47.457Z,0.69
2023-05-05T03:12:47.536Z,0.68
2023-05-05T03:13:47.490Z,0.69
2023-05-05T03:14:47.485Z,0.69
2023-05-05T03:15:47.506Z,0.68
2023-05-05T03:16:47.586Z,0.68
2023-05-05T03:17:47.608Z,0.68
2023-05-05T03:18:47.577Z,0.68
2023-05-05T03:19:47.562Z,0.67
2023-05-05T03:20:47.581Z,0.68
2023-05-05T03:21:47.600Z,0.68
2023-05-05T03:22:47.591Z,0.67
2023-05-05T03:23:47.604Z,0.68
2023-05-05T03:24:47.617Z,0.67
2023-05-05T03:25:47.615Z,0.66
2023-05-05T03:26:47.669Z,0.66
2023-05-05T03:27:47.687Z,0.66
2023-05-05T03:28:47.667Z,0.67
2023-05-05T03:29:47.691Z,0.66
2023-05-05T03:30:47.697Z,0.65
2023-05-05T03:31:47.773Z,0.67
2023-05-05T03:32:47.777Z,0.66
2023-05-05T03:33:47.724Z,0.66
2023-05-05T03:34:47.758Z,0.65
2023-05-05T03:35:48.757Z,0.67
2023-05-05T03:36:47.780Z,0.65
2023-05-05T03:37:47.815Z,0.65
2023-05-05T03:38:47.806Z,0.65
2023-05-05T03:39:47.815Z,0.66
2023-05-05T03:40:47.822Z,0.64
2023-05-05T03:41:47.866Z,0.65
2023-05-05T03:42:48.248Z,0.64
2023-05-05T03:43:47.865Z,0.64
2023-05-05T03:44:47.891Z,0.65
2023-05-05T03:45:47.959Z,0.65
2023-05-05T03:46:47.928Z,0.66
2023-05-05T03:47:48.030Z,0.64
2023-05-05T03:48:47.985Z,0.64
2023-05-05T03:49:47.977Z,0.64
2023-05-05T03:50:47.981Z,0.63
2023-05-05T03:51:48.005Z,0.64
2023-05-05T03:52:48.262Z,0.63
2023-05-05T03:53:48.001Z,0.63
2023-05-05T03:54:48.031Z,0.63
2023-05-05T03:55:48.040Z,0.63
2023-05-05T03:56:48.053Z,0.63
2023-05-05T03:57:48.069Z,0.64
2023-05-05T03:58:48.098Z,0.63
2023-05-05T03:59:48.098Z,0.63
2023-05-05T04:00:48.104Z,0.61
2023-05-05T04:01:48.142Z,0.63
2023-05-05T04:02:48.221Z,0.62
2023-05-05T04:03:48.243Z,0.62
2023-05-05T04:04:48.186Z,0.62
2023-05-05T04:05:48.179Z,0.63
2023-05-05T04:06:48.222Z,0.62
2023-05-05T04:07:48.231Z,0.63
2023-05-05T04:08:48.201Z,0.64
2023-05-05T04:09:48.236Z,0.63
2023-05-05T04:10:48.265Z,0.62
2023-05-05T04:11:48.297Z,0.62
2023-05-05T04:12:48.325Z,0.63
2023-05-05T04:13:48.283Z,0.63
2023-05-05T04:14:48.307Z,0.63
2023-05-05T04:15:48.331Z,0.63
2023-05-05T04:16:48.336Z,0.61
2023-05-05T04:17:48.400Z,0.62
2023-05-05T04:18:48.383Z,0.62
2023-05-05T04:19:48.369Z,0.62
2023-05-05T04:20:48.429Z,0.61
2023-05-05T04:21:48.427Z,0.60
2023-05-05T04:22:49.113Z,0.62
2023-05-05T04:23:48.443Z,0.62
2023-05-05T04:24:48.458Z,0.61
2023-05-05T04:25:48.475Z,0.61
2023-05-05T04:26:48.512Z,0.61
2023-05-05T04:27:48.521Z,0.61
2023-05-05T04:28:48.502Z,0.61
2023-05-05T04:29:48.532Z,0.62
2023-05-05T04:30:48.537Z,0.61
2023-05-05T04:31:48.632Z,0.62
2023-05-05T04:32:48.823Z,0.62
2023-05-05T04:33:48.586Z,0.61
2023-05-05T04:34:48.622Z,0.60
2023-05-05T04:35:48.618Z,0.62
2023-05-05T04:36:48.650Z,0.61
2023-05-05T04:37:48.644Z,0.62
2023-05-05T04:38:48.689Z,0.61
2023-05-05T04:39:48.652Z,0.61
2023-05-05T04:40:48.696Z,0.60
2023-05-05T04:41:48.699Z,0.61
2023-05-05T04:42:48.761Z,0.60
2023-05-05T04:43:48.751Z,0.60
2023-05-05T04:44:48.722Z,0.60
2023-05-05T04:45:48.746Z,0.60
2023-05-05T04:46:48.835Z,0.60
2023-05-05T04:47:49.291Z,0.60
2023-05-05T04:48:48.828Z,0.59
2023-05-05T04:49:48.808Z,0.60
2023-05-05T04:50:48.804Z,0.59
2023-05-05T04:51:48.786Z,0.60
2023-05-05T04:52:49.826Z,0.60
2023-05-05T04:53:48.861Z,0.60
2023-05-05T04:54:48.898Z,0.59
2023-05-05T04:55:48.912Z,0.59
2023-05-05T04:56:48.934Z,0.59
2023-05-05T04:57:48.933Z,0.59
2023-05-05T04:58:48.947Z,0.58
2023-05-05T04:59:48.961Z,0.58
2023-05-05T05:00:48.964Z,0.59
2023-05-05T05:01:48.992Z,0.59
2023-05-05T05:02:49.161Z,0.58
2023-05-05T05:03:49.065Z,0.59
2023-05-05T05:04:48.996Z,0.59
2023-05-05T05:05:49.070Z,0.59
2023-05-05T05:06:49.049Z,0.59
2023-05-05T05:07:49.073Z,0.58
2023-05-05T05:08:49.054Z,0.59
2023-05-05T05:09:49.089Z,0.58
2023-05-05T05:10:49.105Z,0.58
2023-05-05T05:11:49.168Z,0.58
2023-05-05T05:12:49.169Z,0.59
2023-05-05T05:13:49.130Z,0.58
2023-05-05T05:14:49.151Z,0.58
2023-05-05T05:15:49.166Z,0.57
2023-05-05T05:16:49.192Z,0.58
2023-05-05T05:17:49.195Z,0.58
2023-05-05T05:18:49.329Z,0.58
2023-05-05T05:19:49.164Z,0.57
2023-05-05T05:20:49.384Z,0.58
2023-05-05T05:21:49.176Z,0.57
2023-05-05T05:22:49.201Z,0.57
2023-05-05T05:23:49.233Z,0.57
2023-05-05T05:24:49.234Z,0.58
2023-05-05T05:25:49.262Z,0.57
2023-05-05T05:26:49.270Z,0.57
2023-05-05T05:27:55.472Z,0.56
2023-05-05T05:28:50.290Z,0.57
2023-05-05T05:29:49.252Z,0.57
2023-05-05T05:30:49.252Z,0.57
2023-05-05T05:31:49.293Z,0.57
2023-05-05T05:32:49.263Z,0.58
2023-05-05T05:33:49.350Z,0.57
2023-05-05T05:34:49.247Z,0.57
2023-05-05T05:35:49.203Z,0.58
2023-05-05T05:36:49.214Z,0.58
2023-05-05T05:37:49.191Z,0.58
2023-05-05T05:38:49.220Z,0.57
2023-05-05T05:39:49.216Z,0.56
2023-05-05T05:40:49.195Z,0.56
2023-05-05T05:41:49.175Z,0.57
2023-05-05T05:42:49.158Z,0.56
2023-05-05T05:43:49.181Z,0.57
2023-05-05T05:44:49.166Z,0.56
2023-05-05T05:45:49.200Z,0.57
2023-05-05T05:46:49.136Z,0.56
2023-05-05T05:47:49.200Z,0.57
2023-05-05T05:48:49.140Z,0.55
2023-05-05T05:49:49.112Z,0.55
2023-05-05T05:50:49.094Z,0.56
2023-05-05T05:51:49.118Z,0.55
2023-05-05T05:52:49.120Z,0.56
2023-05-05T05:53:49.077Z,0.55
2023-05-05T05:54:49.092Z,0.55
2023-05-05T05:55:49.050Z,0.55
2023-05-05T05:56:49.074Z,0.55
2023-05-05T05:57:49.099Z,0.54
2023-05-05T05:58:49.311Z,0.55
2023-05-05T05:59:49.101Z,0.55
2023-05-05T06:00:49.126Z,0.56
2023-05-05T06:01:49.145Z,0.55
2023-05-05T06:02:49.235Z,0.50
2023-05-05T06:03:49.463Z,0.48
2023-05-05T06:04:49.151Z,0.51
2023-05-05T06:05:49.150Z,0.50
2023-05-05T06:06:49.210Z,0.50
2023-05-05T06:07:49.177Z,0.52
2023-05-05T06:08:49.300Z,0.51
2023-05-05T06:09:49.225Z,0.50
2023-05-05T06:10:49.259Z,0.53
2023-05-05T06:11:49.283Z,0.57
2023-05-05T06:12:49.336Z,0.53
2023-05-05T06:13:49.826Z,0.53
2023-05-05T06:14:49.443Z,0.55
2023-05-05T06:15:49.512Z,0.55
2023-05-05T06:16:49.538Z,0.57
2023-05-05T06:17:49.622Z,0.59
2023-05-05T06:18:49.657Z,0.62
2023-05-05T06:19:49.712Z,0.67
2023-05-05T06:20:49.762Z,0.68
2023-05-05T06:21:49.820Z,0.63
2023-05-05T06:22:49.862Z,0.65
2023-05-05T06:23:50.346Z,0.67
2023-05-05T06:24:50.009Z,0.66
2023-05-05T06:25:50.050Z,0.63
2023-05-05T06:26:50.087Z,0.59
2023-05-05T06:27:50.173Z,0.68
2023-05-05T06:28:50.319Z,0.69
2023-05-05T06:29:50.282Z,0.61
2023-05-05T06:30:50.351Z,0.66
2023-05-05T06:31:50.501Z,0.63
2023-05-05T06:32:50.488Z,0.82
2023-05-05T06:33:50.560Z,0.78
2023-05-05T06:34:50.611Z,0.78
2023-05-05T06:35:50.682Z,0.70
2023-05-05T06:36:50.774Z,0.64
2023-05-05T06:37:50.789Z,0.67
2023-05-05T06:38:51.337Z,0.61
2023-05-05T06:39:50.890Z,0.62
2023-05-05T06:40:50.986Z,0.66
2023-05-05T06:41:51.050Z,0.64
2023-05-05T06:42:51.089Z,0.69
2023-05-05T06:43:51.166Z,0.72
2023-05-05T06:44:51.175Z,0.70
2023-05-05T06:45:51.283Z,0.63
2023-05-05T06:46:51.387Z,0.66
2023-05-05T06:47:51.397Z,0.68
2023-05-05T06:48:51.434Z,0.70
2023-05-05T06:49:51.490Z,0.60
2023-05-05T06:50:51.667Z,0.70
2023-05-05T06:51:51.579Z,0.66
2023-05-05T06:52:51.636Z,0.67
2023-05-05T06:53:51.690Z,0.62
2023-05-05T06:54:51.764Z,0.66
2023-05-05T06:55:51.808Z,0.74
2023-05-05T06:56:51.834Z,0.64
2023-05-05T06:57:51.894Z,0.63
2023-05-05T06:58:51.994Z,0.62
2023-05-05T06:59:51.995Z,0.61
2023-05-05T07:00:52.064Z,0.62
2023-05-05T07:01:52.040Z,0.64
2023-05-05T07:02:52.126Z,0.69
2023-05-05T07:03:52.378Z,0.71
2023-05-05T07:04:52.170Z,0.68
2023-05-05T07:05:52.205Z,0.70
2023-05-05T07:06:52.302Z,0.69
2023-05-05T07:07:52.252Z,0.72
2023-05-05T07:08:52.271Z,0.73
2023-05-05T07:09:52.304Z,0.73
2023-05-05T07:10:52.315Z,0.71
2023-05-05T07:11:52.308Z,0.71
2023-05-05T07:12:52.406Z,0.74
2023-05-05T07:13:52.389Z,0.75
2023-05-05T07:14:52.379Z,0.74
2023-05-05T07:15:52.372Z,0.74
2023-05-05T07:16:52.433Z,0.74
2023-05-05T07:17:52.463Z,0.76
2023-05-05T07:18:52.504Z,0.76
2023-05-05T07:19:52.465Z,0.75
2023-05-05T07:20:52.437Z,0.75
2023-05-05T07:21:52.409Z,0.75
2023-05-05T07:22:52.493Z,0.80
2023-05-05T07:23:52.495Z,0.81
2023-05-05T07:24:52.415Z,0.79
2023-05-05T07:25:52.457Z,0.78
2023-05-05T07:26:52.471Z,0.80
2023-05-05T07:27:52.441Z,0.79
2023-05-05T07:28:52.450Z,0.77
2023-05-05T07:29:52.418Z,0.75
2023-05-05T07:30:52.436Z,0.75
2023-05-05T07:31:52.455Z,0.80
2023-05-05T07:32:52.465Z,0.83
2023-05-05T07:33:52.447Z,0.84
2023-05-05T07:34:52.461Z,0.84
2023-05-05T07:35:52.418Z,0.85
2023-05-05T07:36:52.449Z,0.85
2023-05-05T07:37:52.442Z,0.84
2023-05-05T07:38:52.529Z,0.85
2023-05-05T07:39:52.530Z,0.86
2023-05-05T07:40:52.488Z,0.87
2023-05-05T07:41:52.488Z,0.83
2023-05-05T07:42:52.522Z,0.87
2023-05-05T07:43:52.526Z,0.89
2023-05-05T07:44:52.555Z,0.94
2023-05-05T07:45:52.584Z,0.92
2023-05-05T07:46:52.571Z,0.95
2023-05-05T07:47:52.818Z,0.97
2023-05-05T07:48:52.693Z,0.94
2023-05-05T07:49:52.709Z,0.94
2023-05-05T07:50:53.038Z,0.93
2023-05-05T07:51:52.779Z,0.91
2023-05-05T07:52:59.284Z,0.89
2023-05-05T07:53:53.799Z,0.89
2023-05-05T07:54:52.868Z,0.88
2023-05-05T07:55:52.773Z,0.87
2023-05-05T07:56:52.790Z,0.88
2023-05-05T07:57:52.752Z,0.87
2023-05-05T07:58:52.867Z,0.89
2023-05-05T07:59:52.780Z,0.90
2023-05-05T08:00:52.786Z,0.90
2023-05-05T08:01:54.838Z,0.90
2023-05-05T08:02:52.993Z,0.92
2023-05-05T08:03:53.064Z,0.91
2023-05-05T08:04:53.058Z,0.93
2023-05-05T08:05:53.018Z,0.93
2023-05-05T08:06:53.055Z,0.97
2023-05-05T08:07:53.128Z,0.96
2023-05-05T08:08:53.156Z,0.97
2023-05-05T08:09:53.252Z,0.97
2023-05-05T08:10:53.496Z,0.97
2023-05-05T08:11:53.326Z,0.98
2023-05-05T08:12:53.397Z,1.02
2023-05-05T08:13:53.436Z,1.01
2023-05-05T08:14:53.501Z,1.01
2023-05-05T08:15:53.564Z,1.02
2023-05-05T08:16:53.567Z,1.01
2023-05-05T08:17:53.689Z,1.03
2023-05-05T08:18:53.656Z,1.04
2023-05-05T08:19:53.712Z,1.04
2023-05-05T08:20:53.760Z,1.03
2023-05-05T08:21:53.802Z,1.01
2023-05-05T08:22:53.843Z,0.99
2023-05-05T08:23:53.934Z,0.98
2023-05-05T08:24:53.937Z,0.96
2023-05-05T08:25:53.992Z,1.00
2023-05-05T08:26:54.154Z,0.98
2023-05-05T08:27:54.083Z,0.97
2023-05-05T08:28:54.135Z,0.98
2023-05-05T08:29:54.171Z,0.94
2023-05-05T08:30:54.229Z,0.94
2023-05-05T08:31:54.416Z,0.93
2023-05-05T08:32:54.356Z,0.93
2023-05-05T08:33:54.358Z,0.95
2023-05-05T08:34:54.357Z,0.92
2023-05-05T08:35:54.403Z,0.88
2023-05-05T08:36:54.462Z,0.89
2023-05-05T08:37:56.053Z,0.86
2023-05-05T08:38:54.894Z,0.89
2023-05-05T08:39:54.467Z,0.87
2023-05-05T08:40:54.458Z,0.86
2023-05-05T08:41:54.427Z,0.87
2023-05-05T08:42:54.566Z,0.86
2023-05-05T08:43:54.437Z,0.88
2023-05-05T08:44:54.467Z,0.87
2023-05-05T08:45:54.442Z,0.86
2023-05-05T08:46:54.470Z,0.85
2023-05-05T08:47:54.436Z,0.89
2023-05-05T08:48:54.415Z,0.87
2023-05-05T08:49:54.388Z,0.88
2023-05-05T08:50:54.396Z,0.89
2023-05-05T08:51:54.416Z,0.89
2023-05-05T08:52:54.417Z,0.91
2023-05-05T08:53:54.376Z,0.91
2023-05-05T08:54:54.412Z,0.93
2023-05-05T08:55:54.346Z,0.97
2023-05-05T08:56:54.371Z,1.04
2023-05-05T08:57:54.346Z,1.04
2023-05-05T08:58:54.409Z,1.01
2023-05-05T08:59:54.327Z,1.02
2023-05-05T09:00:54.342Z,1.04
2023-05-05T09:01:54.487Z,1.03
2023-05-05T09:02:54.436Z,1.05
2023-05-05T09:03:54.280Z,1.04
2023-05-05T09:04:54.348Z,1.11
2023-05-05T09:05:54.328Z,1.18
2023-05-05T09:06:54.281Z,1.14
2023-05-05T09:07:54.271Z,1.13
2023-05-05T09:08:54.275Z,1.09
2023-05-05T09:09:54.249Z,1.12
2023-05-05T09:10:54.249Z,1.12
2023-05-05T09:11:54.230Z,1.19
2023-05-05T09:12:54.271Z,1.18
2023-05-05T09:13:54.218Z,1.19
2023-05-05T09:14:54.445Z,1.17
2023-05-05T09:15:54.214Z,1.19
2023-05-05T09:16:54.277Z,1.19
2023-05-05T09:17:54.255Z,1.20
2023-05-05T09:18:54.211Z,1.20
2023-05-05T09:19:54.218Z,1.19
2023-05-05T09:20:54.200Z,1.21
2023-05-05T09:21:54.201Z,1.23
2023-05-05T09:22:54.170Z,1.21
2023-05-05T09:23:54.166Z,1.21
2023-05-05T09:24:54.161Z,1.25
2023-05-05T09:25:54.163Z,1.25
2023-05-05T09:26:54.146Z,1.28
2023-05-05T09:27:54.154Z,1.29
2023-05-05T09:28:54.161Z,1.26
2023-05-05T09:29:54.357Z,1.30
2023-05-05T09:30:54.254Z,1.28
2023-05-05T09:31:54.092Z,1.45
2023-05-05T09:32:54.191Z,1.44
2023-05-05T09:33:54.138Z,1.46
2023-05-05T09:34:54.389Z,1.44
2023-05-05T09:35:54.088Z,1.45
2023-05-05T09:36:54.105Z,1.47
2023-05-05T09:37:54.073Z,1.45
2023-05-05T09:38:54.075Z,1.44
2023-05-05T09:39:54.078Z,1.46
2023-05-05T09:40:54.067Z,1.47
2023-05-05T09:41:54.047Z,1.48
2023-05-05T09:42:54.060Z,1.45
2023-05-05T09:43:54.053Z,1.47
2023-05-05T09:44:54.035Z,1.48
2023-05-05T09:45:54.077Z,1.49
2023-05-05T09:46:54.129Z,1.45
2023-05-05T09:47:59.193Z,1.51
2023-05-05T09:48:55.003Z,1.51
2023-05-05T09:49:53.983Z,1.49
2023-05-05T09:50:53.991Z,1.47
2023-05-05T09:51:53.982Z,1.49
2023-05-05T09:52:53.976Z,1.47
2023-05-05T09:53:53.973Z,1.47
2023-05-05T09:54:53.967Z,1.44
2023-05-05T09:55:54.028Z,1.51
2023-05-05T09:56:53.971Z,1.74
2023-05-05T09:57:53.957Z,1.78
2023-05-05T09:58:53.965Z,1.73
2023-05-05T09:59:54.002Z,1.73
2023-05-05T10:00:53.934Z,1.61
2023-05-05T10:01:53.976Z,1.53
2023-05-05T10:02:54.121Z,1.56
2023-05-05T10:03:53.882Z,1.58
2023-05-05T10:04:53.908Z,1.56
2023-05-05T10:05:53.924Z,1.51
2023-05-05T10:06:53.909Z,1.52
2023-05-05T10:07:53.869Z,1.54
2023-05-05T10:08:53.873Z,1.53
2023-05-05T10:09:53.858Z,1.54
2023-05-05T10:10:53.890Z,1.51
2023-05-05T10:11:53.878Z,1.51
2023-05-05T10:12:53.856Z,1.53
2023-05-05T10:13:53.813Z,1.51
2023-05-05T10:14:53.831Z,1.51
2023-05-05T10:15:53.927Z,1.50
2023-05-05T10:16:53.836Z,1.50
2023-05-05T10:18:05.980Z,1.55
2023-05-05T10:18:54.875Z,1.55
2023-05-05T10:19:53.890Z,1.53
2023-05-05T10:20:53.776Z,1.50
2023-05-05T10:21:53.771Z,1.47
2023-05-05T10:22:53.786Z,1.52
2023-05-05T10:23:53.832Z,1.50
2023-05-05T10:24:53.752Z,1.53
2023-05-05T10:25:53.753Z,1.54
2023-05-05T10:26:53.712Z,1.50
2023-05-05T10:27:53.702Z,1.51
2023-05-05T10:28:53.728Z,1.54
2023-05-05T10:29:53.902Z,1.52
2023-05-05T10:30:53.721Z,1.54
2023-05-05T10:31:53.709Z,1.57
2023-05-05T10:33:04.145Z,1.53
2023-05-05T10:33:54.788Z,1.53
2023-05-05T10:34:54.039Z,1.54
2023-05-05T10:35:53.674Z,1.54
2023-05-05T10:36:53.685Z,1.52
2023-05-05T10:37:53.696Z,1.53
2023-05-05T10:38:53.671Z,1.52
2023-05-05T10:39:53.895Z,1.51
2023-05-05T10:40:53.608Z,1.50
2023-05-05T10:41:53.654Z,1.53
2023-05-05T10:42:53.628Z,1.58
2023-05-05T10:43:53.628Z,1.56
2023-05-05T10:44:53.902Z,1.51
2023-05-05T10:45:53.682Z,1.50
2023-05-05T10:46:53.583Z,1.51
2023-05-05T10:47:53.742Z,1.55
2023-05-05T10:48:53.610Z,1.52
2023-05-05T10:49:53.915Z,1.52
2023-05-05T10:50:53.581Z,1.45
2023-05-05T10:51:53.581Z,1.40
2023-05-05T10:52:53.541Z,1.35
2023-05-05T10:53:53.637Z,1.39
2023-05-05T10:54:53.529Z,1.37
2023-05-05T10:55:53.551Z,1.39
2023-05-05T10:56:53.519Z,1.38
2023-05-05T10:57:53.534Z,1.36
2023-05-05T10:59:00.239Z,1.37
2023-05-05T10:59:54.506Z,1.37
2023-05-05T11:00:53.533Z,1.37
2023-05-05T11:01:53.486Z,1.38
2023-05-05T11:02:53.480Z,1.36
2023-05-05T11:03:53.543Z,1.41
2023-05-05T11:04:53.974Z,1.40
2023-05-05T11:05:53.474Z,1.37
2023-05-05T11:06:53.465Z,1.37
2023-05-05T11:07:53.445Z,1.33
2023-05-05T11:08:53.461Z,1.34
2023-05-05T11:09:53.425Z,1.34
2023-05-05T11:10:53.422Z,1.41
2023-05-05T11:11:53.412Z,1.44
2023-05-05T11:12:53.482Z,1.43
2023-05-05T11:13:53.412Z,1.41
2023-05-05T11:14:53.405Z,1.39
2023-05-05T11:15:53.430Z,1.45
2023-05-05T11:16:53.440Z,1.80
2023-05-05T11:17:53.465Z,1.86
2023-05-05T11:18:53.360Z,1.76
2023-05-05T11:19:53.396Z,1.67
2023-05-05T11:20:53.337Z,1.54
2023-05-05T11:21:53.339Z,1.54
2023-05-05T11:22:53.447Z,1.50
2023-05-05T11:23:53.308Z,1.49
2023-05-05T11:24:53.393Z,1.47
2023-05-05T11:25:53.315Z,1.44
2023-05-05T11:26:53.310Z,1.54
2023-05-05T11:27:53.322Z,1.48
2023-05-05T11:28:53.296Z,1.41
2023-05-05T11:29:53.405Z,1.39
2023-05-05T11:30:53.296Z,1.34
2023-05-05T11:31:53.318Z,1.36
2023-05-05T11:32:53.340Z,1.31
2023-05-05T11:33:53.326Z,1.33
2023-05-05T11:34:53.282Z,1.33
2023-05-05T11:35:53.276Z,1.34
2023-05-05T11:36:53.274Z,1.29
2023-05-05T11:37:53.270Z,1.28
2023-05-05T11:38:53.234Z,1.24
2023-05-05T11:39:53.227Z,1.23
2023-05-05T11:40:53.279Z,1.19
2023-05-05T11:41:53.221Z,1.20
2023-05-05T11:42:53.246Z,1.11
2023-05-05T11:43:53.240Z,1.11
2023-05-05T11:44:53.260Z,1.06
2023-05-05T11:45:53.313Z,1.01
2023-05-05T11:46:53.301Z,1.06
2023-05-05T11:47:53.346Z,1.04
2023-05-05T11:48:53.315Z,1.02
2023-05-05T11:49:53.362Z,1.02
2023-05-05T11:50:53.417Z,0.98
2023-05-05T11:51:53.413Z,1.01
2023-05-05T11:52:53.604Z,0.98
2023-05-05T11:53:53.518Z,0.97
2023-05-05T11:54:54.020Z,0.96
2023-05-05T11:55:53.592Z,0.99
2023-05-05T11:56:53.609Z,1.01
2023-05-05T11:57:53.737Z,0.99
2023-05-05T11:58:53.644Z,0.94
2023-05-05T11:59:53.973Z,0.92
2023-05-05T12:00:53.736Z,0.96
2023-05-05T12:01:53.780Z,0.96
2023-05-05T12:02:53.847Z,0.97
2023-05-05T12:03:53.975Z,0.94
2023-05-05T12:04:54.009Z,0.93
2023-05-05T12:05:53.918Z,0.90
2023-05-05T12:06:53.964Z,0.90
2023-05-05T12:07:54.022Z,0.90
2023-05-05T12:08:54.908Z,0.92
2023-05-05T12:09:54.084Z,0.89
2023-05-05T12:10:54.235Z,0.89
2023-05-05T12:11:54.175Z,0.90
2023-05-05T12:12:55.528Z,0.92
2023-05-05T12:13:54.284Z,0.89
2023-05-05T12:14:54.428Z,0.88
2023-05-05T12:15:54.424Z,0.87
2023-05-05T12:16:54.413Z,0.92
2023-05-05T12:17:54.471Z,0.89
2023-05-05T12:18:54.498Z,0.88
2023-05-05T12:19:54.566Z,0.89
2023-05-05T12:20:54.576Z,0.85
2023-05-05T12:21:54.673Z,0.87
2023-05-05T12:22:54.692Z,0.87
2023-05-05T12:23:54.734Z,0.89
2023-05-05T12:24:55.076Z,0.87
2023-05-05T12:25:54.834Z,0.86
2023-05-05T12:26:54.940Z,0.86
2023-05-05T12:27:54.931Z,0.84
2023-05-05T12:28:54.980Z,0.85
2023-05-05T12:29:55.062Z,0.87
2023-05-05T12:30:55.270Z,0.84
2023-05-05T12:31:55.265Z,0.85
2023-05-05T12:32:55.239Z,0.84
2023-05-05T12:33:55.223Z,0.82
2023-05-05T12:34:55.306Z,0.86
2023-05-05T12:35:55.329Z,0.85
2023-05-05T12:36:55.385Z,0.84
2023-05-05T12:37:55.468Z,0.81
2023-05-05T12:38:55.497Z,0.81
2023-05-05T12:39:55.532Z,0.87
2023-05-05T12:40:55.607Z,0.81
2023-05-05T12:41:55.628Z,0.84
2023-05-05T12:42:55.758Z,0.81
2023-05-05T12:43:55.768Z,0.81
2023-05-05T12:44:55.935Z,0.83
2023-05-05T12:45:55.932Z,0.81
2023-05-05T12:46:55.952Z,0.79
2023-05-05T12:47:55.985Z,0.80
2023-05-05T12:48:56.024Z,0.79
2023-05-05T12:49:56.444Z,0.79
2023-05-05T12:50:56.125Z,0.78
2023-05-05T12:51:56.235Z,0.76
2023-05-05T12:52:56.257Z,0.78
2023-05-05T12:53:56.291Z,0.79
2023-05-05T12:54:56.358Z,0.77
2023-05-05T12:55:56.411Z,0.79
2023-05-05T12:56:56.453Z,0.78
2023-05-05T12:57:56.526Z,0.78
2023-05-05T12:58:56.740Z,0.80
2023-05-05T12:59:56.657Z,0.77
2023-05-05T13:01:03.690Z,0.75
2023-05-05T13:01:56.855Z,0.75
2023-05-05T13:02:56.734Z,0.75
2023-05-05T13:03:56.649Z,0.75
2023-05-05T13:04:56.630Z,0.77
2023-05-05T13:05:57.029Z,0.75
2023-05-05T13:06:56.625Z,0.74
2023-05-05T13:07:56.635Z,0.75
2023-05-05T13:08:56.595Z,0.74
2023-05-05T13:09:56.656Z,0.73
2023-05-05T13:10:56.966Z,0.73
2023-05-05T13:11:56.593Z,0.73
2023-05-05T13:12:56.699Z,0.73
2023-05-05T13:13:56.576Z,0.72
2023-05-05T13:14:56.582Z,0.71
2023-05-05T13:15:56.992Z,0.70
2023-05-05T13:16:56.563Z,0.71
2023-05-05T13:17:56.599Z,0.73
2023-05-05T13:18:56.542Z,0.71